createdAt,value
2022-07-28T00:01:50.486Z,0.50
2022-07-28T00:04:22.561Z,0.50
2022-07-28T00:06:53.672Z,0.85
2022-07-28T00:09:24.635Z,0.60
2022-07-28T00:11:55.434Z,0.70
2022-07-28T00:14:29.322Z,0.60
2022-07-28T00:17:01.011Z,0.70
2022-07-28T00:19:32.352Z,0.57
2022-07-28T00:22:03.574Z,0.60
2022-07-28T00:24:34.741Z,0.70
2022-07-28T00:27:07.127Z,0.70
2022-07-28T00:29:50.588Z,0.77
2022-07-28T00:32:22.757Z,0.80
2022-07-28T00:34:54.550Z,0.85
2022-07-28T00:37:26.489Z,1.00
2022-07-28T00:39:57.183Z,0.95
2022-07-28T00:42:28.330Z,1.10
2022-07-28T00:45:01.422Z,0.82
2022-07-28T00:47:33.730Z,1.20
2022-07-28T00:50:06.525Z,1.10
2022-07-28T00:52:39.242Z,1.35
2022-07-28T00:55:11.250Z,2.00
2022-07-28T00:57:44.598Z,0.98
2022-07-28T01:00:20.223Z,1.42
2022-07-28T01:02:52.333Z,1.10
2022-07-28T01:05:43.268Z,1.35
2022-07-28T01:08:29.718Z,2.92
2022-07-28T01:11:10.460Z,1.23
2022-07-28T01:13:49.041Z,1.50
2022-07-28T01:16:22.587Z,1.98
2022-07-28T01:19:05.522Z,2.10
2022-07-28T01:21:40.175Z,1.90
2022-07-28T01:24:30.476Z,1.60
2022-07-28T01:27:08.322Z,2.38
2022-07-28T01:30:05.195Z,1.48
2022-07-28T01:32:46.416Z,1.50
2022-07-28T01:35:24.259Z,2.05
2022-07-28T01:38:04.469Z,1.70
2022-07-28T01:40:40.027Z,1.67
2022-07-28T01:43:19.909Z,1.63
2022-07-28T01:45:51.749Z,1.73
2022-07-28T01:48:27.942Z,2.38
2022-07-28T01:51:00.585Z,1.70
2022-07-28T01:53:38.292Z,1.90
2022-07-28T01:56:11.959Z,2.28
2022-07-28T01:58:47.095Z,1.58
2022-07-28T02:01:20.799Z,1.80
2022-07-28T02:03:55.022Z,2.08
2022-07-28T02:06:27.965Z,1.63
2022-07-28T02:09:01.819Z,1.67
2022-07-28T02:11:42.488Z,1.50
2022-07-28T02:14:18.384Z,2.00
2022-07-28T02:16:57.099Z,2.10
2022-07-28T02:19:33.286Z,1.60
2022-07-28T02:22:08.206Z,1.45
2022-07-28T02:24:41.264Z,1.83
2022-07-28T02:27:18.767Z,1.50
2022-07-28T02:29:56.032Z,1.50
2022-07-28T02:32:35.307Z,1.95
2022-07-28T02:35:15.322Z,2.90
2022-07-28T02:37:54.951Z,1.83
2022-07-28T02:40:28.169Z,1.75
2022-07-28T02:43:02.520Z,1.63
2022-07-28T02:45:36.734Z,1.98
2022-07-28T02:48:14.591Z,1.38
2022-07-28T02:50:50.306Z,1.60
2022-07-28T02:53:22.777Z,2.13
2022-07-28T02:55:55.323Z,1.95
2022-07-28T02:58:30.241Z,2.65
2022-07-28T03:01:01.618Z,2.55
2022-07-28T03:03:36.045Z,1.45
2022-07-28T03:06:09.959Z,3.00
2022-07-28T03:08:40.508Z,2.30
2022-07-28T03:11:13.504Z,1.50
2022-07-28T03:13:45.483Z,1.83
2022-07-28T03:16:16.015Z,2.05
2022-07-28T03:18:46.336Z,1.70
2022-07-28T03:21:19.851Z,2.28
2022-07-28T03:23:54.494Z,3.28
2022-07-28T03:26:38.694Z,1.73
2022-07-28T03:29:10.805Z,1.85
2022-07-28T03:31:46.969Z,1.73
2022-07-28T03:34:19.046Z,1.73
2022-07-28T03:36:59.927Z,2.53
2022-07-28T03:39:34.062Z,1.67
2022-07-28T03:42:06.883Z,1.50
2022-07-28T03:44:41.155Z,1.80
2022-07-28T03:47:11.750Z,1.67
2022-07-28T03:49:42.647Z,1.60
2022-07-28T03:52:15.907Z,2.70
2022-07-28T03:54:47.277Z,1.98
2022-07-28T03:57:18.674Z,1.80
2022-07-28T03:59:48.958Z,1.98
2022-07-28T04:02:20.300Z,1.98
2022-07-28T04:04:50.778Z,2.42
2022-07-28T04:07:23.290Z,1.80
2022-07-28T04:09:54.303Z,2.22
2022-07-28T04:12:25.757Z,2.25
2022-07-28T04:14:56.379Z,3.35
2022-07-28T04:17:27.495Z,3.17
2022-07-28T04:19:58.343Z,1.70
2022-07-28T04:22:30.976Z,1.63
2022-07-28T04:25:02.928Z,2.05
2022-07-28T04:27:34.553Z,1.98
2022-07-28T04:30:07.617Z,2.50
2022-07-28T04:32:39.338Z,2.03
2022-07-28T04:35:20.152Z,1.80
2022-07-28T04:37:55.816Z,2.15
2022-07-28T04:40:27.366Z,2.58
2022-07-28T04:42:58.632Z,2.00
2022-07-28T04:45:29.578Z,1.85
2022-07-28T04:47:59.859Z,2.50
2022-07-28T04:50:30.803Z,2.22
2022-07-28T04:53:03.872Z,2.13
2022-07-28T04:55:35.854Z,2.10
2022-07-28T04:58:10.099Z,2.00
2022-07-28T05:00:41.771Z,1.92
2022-07-28T05:03:12.970Z,1.92
2022-07-28T05:05:43.302Z,2.17
2022-07-28T05:08:20.357Z,1.90
2022-07-28T05:10:51.644Z,1.73
2022-07-28T05:13:22.960Z,1.60
2022-07-28T05:15:54.724Z,2.80
2022-07-28T05:18:26.611Z,2.08
2022-07-28T05:20:58.103Z,1.48
2022-07-28T05:23:30.314Z,1.05
2022-07-28T05:26:01.308Z,1.27
2022-07-28T05:28:32.158Z,1.33
2022-07-28T05:31:04.266Z,1.38
2022-07-28T05:33:35.907Z,0.85
2022-07-28T05:36:08.621Z,0.98
2022-07-28T05:38:40.642Z,1.95
2022-07-28T05:41:18.200Z,1.58
2022-07-28T05:43:50.295Z,1.40
2022-07-28T05:46:21.475Z,1.23
2022-07-28T05:48:52.251Z,1.33
2022-07-28T05:51:25.531Z,1.00
2022-07-28T05:53:59.387Z,1.00
2022-07-28T05:56:30.682Z,1.17
2022-07-28T05:59:02.747Z,1.42
2022-07-28T06:01:40.761Z,1.95
2022-07-28T06:04:29.060Z,1.42
2022-07-28T06:06:59.936Z,1.30
2022-07-28T06:09:32.156Z,1.30
2022-07-28T06:12:03.637Z,1.40
2022-07-28T06:14:34.488Z,1.55
2022-07-28T06:17:05.693Z,1.27
2022-07-28T06:19:36.466Z,1.10
2022-07-28T06:22:07.598Z,1.10
2022-07-28T06:24:40.989Z,1.58
2022-07-28T06:27:12.206Z,1.65
2022-07-28T06:29:43.110Z,1.27
2022-07-28T06:32:13.763Z,1.95
2022-07-28T06:34:45.036Z,1.35
2022-07-28T06:37:15.486Z,1.02
2022-07-28T06:39:48.150Z,0.82
2022-07-28T06:42:19.585Z,1.38
2022-07-28T06:44:58.847Z,1.48
2022-07-28T06:47:31.002Z,1.58
2022-07-28T06:50:02.445Z,1.35
2022-07-28T06:52:33.621Z,2.55
2022-07-28T06:55:07.630Z,1.50
2022-07-28T06:57:42.459Z,1.45
2022-07-28T07:00:15.920Z,1.88
2022-07-28T07:02:47.704Z,1.40
2022-07-28T07:05:19.654Z,1.45
2022-07-28T07:07:50.764Z,1.63
2022-07-28T07:10:25.664Z,1.50
2022-07-28T07:12:57.043Z,2.65
2022-07-28T07:15:28.222Z,3.83
2022-07-28T07:17:58.913Z,2.20
2022-07-28T07:20:29.953Z,1.42
2022-07-28T07:23:02.170Z,1.92
2022-07-28T07:25:35.369Z,1.45
2022-07-28T07:28:06.331Z,1.80
2022-07-28T07:30:37.564Z,1.60
2022-07-28T07:33:09.758Z,1.23
2022-07-28T07:35:41.019Z,0.80
2022-07-28T07:38:12.786Z,1.00
2022-07-28T07:40:46.449Z,1.27
2022-07-28T07:43:17.684Z,1.33
2022-07-28T07:45:48.748Z,1.10
2022-07-28T07:48:20.402Z,0.93
2022-07-28T07:50:54.305Z,1.20
2022-07-28T07:53:25.692Z,2.22
2022-07-28T07:55:58.939Z,1.02
2022-07-28T07:58:30.054Z,1.15
2022-07-28T08:01:01.229Z,0.93
2022-07-28T08:03:34.621Z,1.40
2022-07-28T08:06:07.213Z,3.20
2022-07-28T08:08:43.754Z,1.40
2022-07-28T08:11:19.767Z,1.30
2022-07-28T08:13:51.545Z,1.15
2022-07-28T08:16:23.005Z,1.45
2022-07-28T08:18:59.472Z,1.33
2022-07-28T08:21:31.889Z,1.30
2022-07-28T08:24:04.451Z,1.15
2022-07-28T08:26:37.388Z,1.95
2022-07-28T08:29:10.816Z,1.35
2022-07-28T08:31:42.109Z,1.23
2022-07-28T08:34:26.287Z,1.00
2022-07-28T08:37:04.581Z,1.08
2022-07-28T08:39:38.200Z,0.80
2022-07-28T08:42:21.557Z,1.30
2022-07-28T08:45:01.400Z,1.23
2022-07-28T08:47:45.951Z,1.00
2022-07-28T08:50:28.294Z,4.82
2022-07-28T08:53:01.789Z,0.75
2022-07-28T08:55:35.123Z,0.98
2022-07-28T08:58:07.979Z,1.00
2022-07-28T09:00:40.525Z,0.93
2022-07-28T09:03:18.614Z,1.20
2022-07-28T09:05:52.232Z,1.00
2022-07-28T09:08:23.862Z,0.95
2022-07-28T09:10:56.272Z,1.40
2022-07-28T09:13:29.278Z,1.00
2022-07-28T09:16:02.272Z,1.30
2022-07-28T09:18:33.883Z,1.25
2022-07-28T09:21:05.755Z,1.25
2022-07-28T09:23:48.748Z,1.42
2022-07-28T09:26:21.472Z,0.93
2022-07-28T09:29:02.881Z,0.95
2022-07-28T09:31:33.804Z,1.27
2022-07-28T09:34:06.922Z,1.05
2022-07-28T09:36:44.493Z,1.08
2022-07-28T09:39:30.295Z,1.08
2022-07-28T09:42:01.772Z,1.00
2022-07-28T09:44:38.505Z,0.80
2022-07-28T09:47:25.682Z,0.85
2022-07-28T09:49:57.344Z,0.90
2022-07-28T09:52:41.961Z,0.90
2022-07-28T09:55:15.493Z,1.17
2022-07-28T09:57:46.704Z,0.98
2022-07-28T10:00:33.064Z,1.08
2022-07-28T10:03:04.376Z,0.90
2022-07-28T10:05:54.692Z,1.23
2022-07-28T10:08:43.249Z,0.90
2022-07-28T10:11:16.245Z,0.90
2022-07-28T10:14:03.517Z,0.77
2022-07-28T10:16:40.187Z,1.15
2022-07-28T10:19:11.620Z,0.68
2022-07-28T10:21:46.827Z,0.70
2022-07-28T10:24:25.931Z,0.80
2022-07-28T10:27:01.963Z,1.02
2022-07-28T10:29:35.150Z,0.90
2022-07-28T10:32:10.483Z,0.88
2022-07-28T10:34:53.922Z,0.60
2022-07-28T10:37:29.094Z,0.85
2022-07-28T10:40:10.425Z,0.80
2022-07-28T10:42:47.193Z,0.63
2022-07-28T10:45:20.741Z,0.88
2022-07-28T10:47:55.159Z,0.85
2022-07-28T10:50:27.565Z,0.90
2022-07-28T10:52:59.843Z,0.90
2022-07-28T10:55:46.049Z,1.60
2022-07-28T10:58:26.361Z,0.77
2022-07-28T11:01:05.416Z,0.95
2022-07-28T11:03:45.943Z,0.90
2022-07-28T11:06:31.999Z,0.80
2022-07-28T11:09:24.375Z,0.70
2022-07-28T11:12:00.824Z,0.70
2022-07-28T11:14:38.099Z,0.85
2022-07-28T11:17:33.739Z,0.60
2022-07-28T11:20:27.220Z,0.90
2022-07-28T11:23:46.571Z,0.75
2022-07-28T11:26:39.998Z,1.17
2022-07-28T11:29:28.307Z,0.80
2022-07-28T11:32:09.752Z,0.80
2022-07-28T11:35:13.204Z,0.82
2022-07-28T11:38:15.479Z,1.02
2022-07-28T11:40:56.737Z,0.70
2022-07-28T11:43:46.245Z,0.77
2022-07-28T11:46:39.560Z,0.70
2022-07-28T11:49:30.597Z,0.77
2022-07-28T11:52:26.559Z,0.77
2022-07-28T11:55:00.803Z,0.82
2022-07-28T11:57:32.809Z,0.80
2022-07-28T12:00:06.319Z,0.80
2022-07-28T12:02:39.199Z,0.82
2022-07-28T12:05:18.323Z,0.80
2022-07-28T12:08:00.605Z,0.88
2022-07-28T12:10:53.833Z,1.00
2022-07-28T12:13:34.939Z,0.80
2022-07-28T12:16:08.443Z,0.73
2022-07-28T12:18:42.939Z,0.88
2022-07-28T12:21:14.758Z,1.00
2022-07-28T12:23:49.386Z,0.95
2022-07-28T12:26:41.106Z,0.90
2022-07-28T12:29:16.308Z,0.98
2022-07-28T12:32:00.272Z,1.20
2022-07-28T12:34:35.592Z,0.90
2022-07-28T12:37:10.306Z,0.98
2022-07-28T12:39:44.918Z,1.02
2022-07-28T12:42:17.892Z,0.70
2022-07-28T12:44:54.911Z,0.80
2022-07-28T12:47:33.639Z,0.90
2022-07-28T12:50:17.581Z,0.80
2022-07-28T12:53:08.319Z,1.02
2022-07-28T12:55:44.073Z,1.30
2022-07-28T12:58:28.272Z,0.85
2022-07-28T13:01:00.428Z,0.77
2022-07-28T13:03:31.991Z,0.68
2022-07-28T13:06:15.736Z,0.65
2022-07-28T13:08:49.291Z,0.90
2022-07-28T13:11:46.201Z,0.80
2022-07-28T13:14:18.936Z,0.60
2022-07-28T13:17:01.295Z,2.45
2022-07-28T13:19:32.015Z,0.80
2022-07-28T13:22:08.825Z,0.73
2022-07-28T13:24:41.303Z,0.80
2022-07-28T13:27:14.999Z,0.88
2022-07-28T13:29:45.977Z,0.60
2022-07-28T13:32:17.261Z,1.10
2022-07-28T13:34:49.302Z,0.70
2022-07-28T13:37:21.948Z,0.90
2022-07-28T13:39:54.684Z,0.88
2022-07-28T13:42:27.623Z,0.77
2022-07-28T13:45:01.765Z,0.57
2022-07-28T13:47:41.619Z,1.05
2022-07-28T13:50:14.061Z,0.77
2022-07-28T13:52:48.282Z,0.75
2022-07-28T13:55:22.748Z,1.02
2022-07-28T13:57:58.451Z,0.77
2022-07-28T14:00:30.597Z,0.85
2022-07-28T14:03:01.836Z,0.70
2022-07-28T14:05:34.267Z,0.80
2022-07-28T14:08:05.280Z,0.88
2022-07-28T14:10:37.488Z,0.68
2022-07-28T14:13:10.927Z,0.93
2022-07-28T14:15:44.638Z,0.65
2022-07-28T14:18:18.962Z,0.77
2022-07-28T14:21:00.716Z,0.65
2022-07-28T14:23:34.471Z,0.75
2022-07-28T14:26:33.325Z,0.70
2022-07-28T14:29:01.674Z,0.98
2022-07-28T14:31:35.461Z,0.60
2022-07-28T14:34:06.129Z,1.63
2022-07-28T14:36:37.309Z,0.57
2022-07-28T14:39:12.450Z,0.80
2022-07-28T14:41:45.029Z,0.57
2022-07-28T14:44:24.285Z,0.65
2022-07-28T14:46:58.210Z,0.70
2022-07-28T14:49:33.860Z,0.80
2022-07-28T14:52:10.018Z,1.00
2022-07-28T14:54:46.822Z,0.40
2022-07-28T14:57:51.919Z,0.70
2022-07-28T15:00:33.152Z,0.73
2022-07-28T15:03:08.841Z,0.63
2022-07-28T15:05:47.572Z,0.52
2022-07-28T15:08:28.840Z,0.63
2022-07-28T15:11:06.162Z,0.70
2022-07-28T15:13:37.831Z,0.57
2022-07-28T15:16:12.367Z,0.80
2022-07-28T15:18:43.362Z,0.80
2022-07-28T15:21:22.606Z,0.63
2022-07-28T15:24:03.467Z,0.63
2022-07-28T15:26:34.937Z,0.45
2022-07-28T15:29:05.705Z,0.60
2022-07-28T15:31:39.701Z,0.60
2022-07-28T15:34:33.341Z,0.68
2022-07-28T15:37:04.162Z,0.43
2022-07-28T15:39:34.960Z,0.57
2022-07-28T15:42:05.990Z,0.70
2022-07-28T15:44:36.640Z,0.77
2022-07-28T15:47:10.727Z,0.82
2022-07-28T15:49:42.292Z,0.55
2022-07-28T15:52:14.732Z,1.20
2022-07-28T15:54:46.083Z,0.70
2022-07-28T15:57:20.309Z,0.50
2022-07-28T15:59:51.181Z,0.60
2022-07-28T16:02:31.148Z,0.63
2022-07-28T16:05:06.296Z,0.65
2022-07-28T16:07:41.926Z,0.60
2022-07-28T16:10:16.550Z,0.60
2022-07-28T16:12:47.230Z,0.50
2022-07-28T16:15:18.375Z,0.70
2022-07-28T16:17:52.530Z,0.70
2022-07-28T16:20:23.923Z,0.70
2022-07-28T16:22:58.126Z,0.47
2022-07-28T16:25:30.053Z,0.60
2022-07-28T16:28:04.727Z,0.57
2022-07-28T16:30:37.013Z,0.52
2022-07-28T16:33:10.384Z,1.00
2022-07-28T16:35:41.927Z,0.57
2022-07-28T16:38:15.059Z,0.70
2022-07-28T16:40:54.055Z,0.30
2022-07-28T16:43:25.401Z,0.75
2022-07-28T16:45:56.524Z,0.73
2022-07-28T16:48:32.382Z,0.60
2022-07-28T16:51:03.490Z,0.60
2022-07-28T16:53:36.305Z,0.65
2022-07-28T16:56:08.276Z,0.65
2022-07-28T16:58:39.994Z,0.55
2022-07-28T17:01:11.367Z,0.70
2022-07-28T17:03:45.007Z,0.75
2022-07-28T17:06:16.988Z,0.70
2022-07-28T17:08:47.812Z,1.00
2022-07-28T17:11:20.123Z,0.68
2022-07-28T17:13:51.822Z,0.80
2022-07-28T17:16:22.325Z,0.60
2022-07-28T17:18:56.157Z,0.65
2022-07-28T17:21:27.679Z,0.50
2022-07-28T17:23:59.270Z,0.70
2022-07-28T17:29:27.195Z,0.52
2022-07-28T17:31:58.747Z,0.65
2022-07-28T17:34:32.376Z,0.60
2022-07-28T17:37:12.115Z,0.60
2022-07-28T17:39:48.064Z,0.65
2022-07-28T17:42:19.193Z,0.85
2022-07-28T17:44:52.790Z,0.75
2022-07-28T17:47:24.956Z,0.52
2022-07-28T17:50:13.787Z,0.40
2022-07-28T17:52:45.674Z,0.57
2022-07-28T17:55:55.843Z,0.60
2022-07-28T17:58:29.687Z,0.57
2022-07-28T18:01:10.743Z,0.70
2022-07-28T18:03:59.114Z,0.60
2022-07-28T18:06:37.583Z,0.90
2022-07-28T18:09:17.729Z,0.73
2022-07-28T18:11:55.693Z,0.60
2022-07-28T18:14:30.554Z,2.35
2022-07-28T18:17:04.751Z,0.68
2022-07-28T18:19:36.575Z,0.50
2022-07-28T18:22:09.346Z,0.70
2022-07-28T18:24:41.849Z,0.75
2022-07-28T18:27:14.043Z,0.60
2022-07-28T18:29:45.342Z,0.60
2022-07-28T18:32:17.944Z,0.60
2022-07-28T18:34:49.261Z,0.88
2022-07-28T18:37:22.185Z,0.88
2022-07-28T18:39:53.482Z,0.95
2022-07-28T18:42:24.866Z,0.77
2022-07-28T18:44:55.418Z,0.70
2022-07-28T18:47:28.715Z,1.25
2022-07-28T18:50:01.107Z,0.40
2022-07-28T18:52:36.333Z,0.70
2022-07-28T18:55:08.090Z,0.70
2022-07-28T18:57:39.578Z,0.82
2022-07-28T19:00:14.084Z,0.73
2022-07-28T19:02:45.033Z,0.57
2022-07-28T19:05:16.672Z,0.73
2022-07-28T19:07:50.686Z,1.05
2022-07-28T19:10:22.098Z,1.38
2022-07-28T19:12:58.470Z,0.75
2022-07-28T19:15:31.994Z,0.80
2022-07-28T19:18:11.399Z,0.68
2022-07-28T19:20:44.104Z,0.73
2022-07-28T19:23:17.079Z,0.52
2022-07-28T19:25:48.037Z,0.73
2022-07-28T19:28:20.084Z,0.70
2022-07-28T19:30:53.380Z,0.98
2022-07-28T19:33:26.150Z,0.60
2022-07-28T19:35:59.709Z,0.80
2022-07-28T19:38:33.862Z,0.50
2022-07-28T19:41:04.658Z,0.93
2022-07-28T19:43:36.547Z,0.60
2022-07-28T19:46:07.493Z,0.60
2022-07-28T19:48:39.492Z,0.80
2022-07-28T19:51:17.151Z,0.50
2022-07-28T19:53:51.216Z,0.43
2022-07-28T19:56:30.508Z,0.63
2022-07-28T19:59:04.075Z,0.60
2022-07-28T20:01:58.279Z,0.63
2022-07-28T20:04:29.040Z,0.57
2022-07-28T20:07:03.125Z,0.88
2022-07-28T20:09:35.035Z,0.60
2022-07-28T20:12:07.800Z,0.65
2022-07-28T20:14:42.724Z,0.52
2022-07-28T20:17:29.802Z,1.02
2022-07-28T20:20:05.693Z,0.80
2022-07-28T20:22:38.840Z,0.65
2022-07-28T20:25:14.312Z,0.68
2022-07-28T20:27:46.671Z,0.65
2022-07-28T20:30:31.806Z,0.80
2022-07-28T20:33:05.448Z,0.70
2022-07-28T20:35:37.294Z,0.68
2022-07-28T20:38:09.469Z,0.47
2022-07-28T20:40:53.822Z,0.57
2022-07-28T20:43:36.342Z,0.60
2022-07-28T20:46:15.124Z,0.52
2022-07-28T20:48:54.935Z,0.70
2022-07-28T20:51:32.947Z,0.40
2022-07-28T20:54:06.305Z,0.50
2022-07-28T20:56:41.166Z,0.60
2022-07-28T20:59:14.580Z,0.40
2022-07-28T21:01:48.186Z,0.70
2022-07-28T21:04:24.853Z,0.60
2022-07-28T21:07:04.300Z,0.60
2022-07-28T21:09:34.851Z,0.43
2022-07-28T21:12:09.985Z,0.50
2022-07-28T21:14:40.443Z,0.63
2022-07-28T21:17:12.500Z,0.47
2022-07-28T21:19:51.302Z,0.60
2022-07-28T21:22:28.096Z,0.60
2022-07-28T21:25:06.712Z,0.90
2022-07-28T21:28:05.388Z,0.73
2022-07-28T21:30:44.842Z,0.60
2022-07-28T21:33:23.297Z,0.50
2022-07-28T21:36:00.782Z,0.90
2022-07-28T21:38:41.653Z,0.68
2022-07-28T21:41:20.898Z,0.63
2022-07-28T21:44:16.044Z,0.43
2022-07-28T21:47:13.501Z,0.57
2022-07-28T21:50:24.430Z,0.60
2022-07-28T21:53:17.265Z,0.50
2022-07-28T21:55:55.475Z,0.60
2022-07-28T21:58:31.087Z,0.60
2022-07-28T22:01:08.302Z,0.52
2022-07-28T22:03:45.837Z,0.63
2022-07-28T22:06:16.517Z,0.77
2022-07-28T22:08:50.580Z,0.63
2022-07-28T22:11:25.994Z,0.52
2022-07-28T22:13:56.421Z,0.47
2022-07-28T22:16:32.154Z,0.85
2022-07-28T22:19:10.554Z,0.40
2022-07-28T22:21:44.394Z,0.70
2022-07-28T22:24:18.484Z,0.70
2022-07-28T22:26:52.751Z,0.60
2022-07-28T22:29:31.137Z,0.47
2022-07-28T22:32:09.570Z,0.80
2022-07-28T22:34:44.624Z,0.50
2022-07-28T22:37:15.406Z,0.55
2022-07-28T22:39:45.904Z,0.80
2022-07-28T22:42:16.602Z,0.60
2022-07-28T22:44:47.715Z,0.60
2022-07-28T22:47:20.846Z,0.57
2022-07-28T22:49:54.596Z,0.77
2022-07-28T22:52:29.129Z,0.80
2022-07-28T22:55:00.805Z,0.73
2022-07-28T22:57:35.174Z,0.68
2022-07-28T23:00:13.676Z,0.70
2022-07-28T23:02:53.030Z,0.57
2022-07-28T23:05:27.048Z,0.75
2022-07-28T23:08:03.118Z,0.40
2022-07-28T23:10:46.707Z,0.70
2022-07-28T23:13:20.454Z,0.70
2022-07-28T23:15:56.573Z,0.55
2022-07-28T23:18:33.896Z,0.50
2022-07-28T23:21:07.696Z,0.60
2022-07-28T23:23:42.114Z,0.55
2022-07-28T23:26:22.461Z,0.70
2022-07-28T23:28:55.745Z,0.63
2022-07-28T23:31:30.270Z,0.77
2022-07-28T23:34:13.813Z,0.80
2022-07-28T23:36:49.420Z,0.60
2022-07-28T23:39:22.504Z,0.60
2022-07-28T23:41:55.930Z,0.57
2022-07-28T23:44:35.874Z,0.70
2022-07-28T23:47:08.101Z,0.70
2022-07-28T23:49:40.040Z,0.60
2022-07-28T23:52:11.258Z,1.10
2022-07-28T23:54:44.249Z,0.80
2022-07-28T23:57:14.524Z,0.95
2022-07-28T23:59:45.501Z,0.75
